This is the latest recevied weather packets stored in our database for station/object DL4LAM-15. If no packets are shown the sender has not sent any weather packets the latest 10 day(s).
| Time | Temp. | Humidity | Pressure | Rain* | Wind** | Luminosity | Snow |
|---|---|---|---|---|---|---|---|
| 1777749918 | 21.11° C | 58% | 1013.7 hPa | 0 mm | - | - | - |
| 1777746918 | 23.89° C | 49% | 1013.7 hPa | 0 mm | - | - | - |
| 1777744518 | 25° C | 44% | 1013.8 hPa | 0 mm | - | - | - |
| 1777744222 | 25.56° C | 45% | 1013.8 hPa | 0 mm | - | - | - |
| 1777743017 | 25.56° C | 42% | 1013.8 hPa | 0 mm | - | - | - |
| 1777742418 | 25.56° C | 41% | 1013.8 hPa | 0 mm | - | - | - |
| 1777740617 | 26.11° C | 39% | 1014.1 hPa | 0 mm | - | - | - |
| 1777734617 | 27.22° C | 35% | 1015 hPa | 0 mm | - | - | - |
| 1777734317 | 27.22° C | 34% | 1015.1 hPa | 0 mm | - | - | - |
| 1777733717 | 27.78° C | 33% | 1015.2 hPa | 0 mm | - | - | - |
| 1777732217 | 28.33° C | 33% | 1015.5 hPa | 0 mm | - | - | - |
| 1777731317 | 28.89° C | 33% | 1015.6 hPa | 0 mm | - | - | - |
| 1777730417 | 29.44° C | 32% | 1015.8 hPa | 0 mm | - | - | - |
| 1777729518 | 29.44° C | 32% | 1016 hPa | 0 mm | - | - | - |
| 1777726517 | 30° C | 27% | 1016.6 hPa | 0 mm | - | - | - |
| 1777726217 | 30° C | 27% | 1016.7 hPa | 0 mm | - | - | - |
| 1777725317 | 29.44° C | 27% | 1016.7 hPa | 0 mm | - | - | - |
| 1777723517 | 28.89° C | 28% | 1017.1 hPa | 0 mm | - | - | - |
| 1777720517 | 27.22° C | 33% | 1017.7 hPa | 0 mm | - | - | - |
| 1777720217 | 26.67° C | 32% | 1017.9 hPa | 0 mm | - | - | - |
| 1777719317 | 26.11° C | 33% | 1018 hPa | 0 mm | - | - | - |
| 1777718417 | 26.11° C | 33% | 1018.1 hPa | 0 mm | - | - | - |
| 1777716917 | 26.11° C | 33% | 1018.3 hPa | 0 mm | - | - | - |
| 1777716617 | 26.11° C | 33% | 1018.3 hPa | 0 mm | - | - | - |
| 1777715717 | 26.67° C | 32% | 1018.7 hPa | 0 mm | - | - | - |
* Rain latest hour (hover to see other rain measurements)
** Current wind speed in m/s (hover to see current wind gust speed)